sensor_id;sensor_type;location;lat;lon;timestamp;temperature;humidity
23207;DHT22;11773;52.570;13.052;2023-05-16T00:00:48;16.50;99.90
23207;DHT22;11773;52.570;13.052;2023-05-16T00:03:19;16.40;99.90
23207;DHT22;11773;52.570;13.052;2023-05-16T00:05:49;16.40;99.90
23207;DHT22;11773;52.570;13.052;2023-05-16T00:08:19;16.20;99.90
23207;DHT22;11773;52.570;13.052;2023-05-16T00:10:48;16.40;99.90
23207;DHT22;11773;52.570;13.052;2023-05-16T00:13:18;16.30;99.90
23207;DHT22;11773;52.570;13.052;2023-05-16T00:15:49;16.20;99.90
23207;DHT22;11773;52.570;13.052;2023-05-16T00:18:20;16.30;99.90
23207;DHT22;11773;52.570;13.052;2023-05-16T00:20:52;16.20;99.90
23207;DHT22;11773;52.570;13.052;2023-05-16T00:23:22;16.20;99.90
23207;DHT22;11773;52.570;13.052;2023-05-16T00:25:52;16.10;99.90
23207;DHT22;11773;52.570;13.052;2023-05-16T00:28:21;16.20;99.90
23207;DHT22;11773;52.570;13.052;2023-05-16T00:30:51;16.20;99.90
23207;DHT22;11773;52.570;13.052;2023-05-16T00:33:21;16.10;99.90
23207;DHT22;11773;52.570;13.052;2023-05-16T00:35:50;15.90;99.90
23207;DHT22;11773;52.570;13.052;2023-05-16T00:38:20;16.10;99.90
23207;DHT22;11773;52.570;13.052;2023-05-16T00:40:50;15.70;99.90
23207;DHT22;11773;52.570;13.052;2023-05-16T00:43:19;15.80;99.90
23207;DHT22;11773;52.570;13.052;2023-05-16T00:45:49;15.70;99.90
23207;DHT22;11773;52.570;13.052;2023-05-16T00:48:19;15.50;99.90
23207;DHT22;11773;52.570;13.052;2023-05-16T00:50:48;15.40;99.90
23207;DHT22;11773;52.570;13.052;2023-05-16T00:53:19;15.30;99.90
23207;DHT22;11773;52.570;13.052;2023-05-16T00:55:50;15.40;99.90
23207;DHT22;11773;52.570;13.052;2023-05-16T00:58:21;15.30;99.90
23207;DHT22;11773;52.570;13.052;2023-05-16T01:00:52;15.20;99.90
23207;DHT22;11773;52.570;13.052;2023-05-16T01:03:22;15.20;99.90
23207;DHT22;11773;52.570;13.052;2023-05-16T01:05:51;15.20;99.90
23207;DHT22;11773;52.570;13.052;2023-05-16T01:08:21;15.10;99.90
23207;DHT22;11773;52.570;13.052;2023-05-16T01:11:07;15.00;99.90
23207;DHT22;11773;52.570;13.052;2023-05-16T01:13:54;14.80;99.90
23207;DHT22;11773;52.570;13.052;2023-05-16T01:25:53;14.80;99.90
23207;DHT22;11773;52.570;13.052;2023-05-16T01:28:25;14.90;99.90
23207;DHT22;11773;52.570;13.052;2023-05-16T01:30:55;14.70;99.90
23207;DHT22;11773;52.570;13.052;2023-05-16T01:33:25;14.80;99.90
23207;DHT22;11773;52.570;13.052;2023-05-16T01:39:01;14.60;99.90
23207;DHT22;11773;52.570;13.052;2023-05-16T01:42:06;14.60;99.90
23207;DHT22;11773;52.570;13.052;2023-05-16T01:44:59;14.50;99.90
23207;DHT22;11773;52.570;13.052;2023-05-16T01:47:39;14.40;99.90
23207;DHT22;11773;52.570;13.052;2023-05-16T01:50:15;14.50;99.90
23207;DHT22;11773;52.570;13.052;2023-05-16T01:52:49;14.20;99.90
23207;DHT22;11773;52.570;13.052;2023-05-16T01:55:41;14.40;99.90
23207;DHT22;11773;52.570;13.052;2023-05-16T01:58:02;14.50;99.90
23207;DHT22;11773;52.570;13.052;2023-05-16T02:00:32;14.40;99.90
23207;DHT22;11773;52.570;13.052;2023-05-16T02:03:02;14.50;99.90
23207;DHT22;11773;52.570;13.052;2023-05-16T02:05:33;14.50;99.90
23207;DHT22;11773;52.570;13.052;2023-05-16T02:08:03;14.60;99.90
23207;DHT22;11773;52.570;13.052;2023-05-16T02:10:33;14.30;99.90
23207;DHT22;11773;52.570;13.052;2023-05-16T02:13:02;14.00;99.90
23207;DHT22;11773;52.570;13.052;2023-05-16T02:15:32;14.00;99.90
23207;DHT22;11773;52.570;13.052;2023-05-16T02:18:01;14.20;99.90
23207;DHT22;11773;52.570;13.052;2023-05-16T02:20:31;14.30;99.90
23207;DHT22;11773;52.570;13.052;2023-05-16T02:23:00;14.20;99.90
23207;DHT22;11773;52.570;13.052;2023-05-16T02:25:32;14.00;99.90
23207;DHT22;11773;52.570;13.052;2023-05-16T02:28:02;14.20;99.90
23207;DHT22;11773;52.570;13.052;2023-05-16T02:30:32;14.20;99.90
23207;DHT22;11773;52.570;13.052;2023-05-16T02:33:01;14.20;99.90
23207;DHT22;11773;52.570;13.052;2023-05-16T02:35:31;13.90;99.90
23207;DHT22;11773;52.570;13.052;2023-05-16T02:38:00;14.00;99.90
23207;DHT22;11773;52.570;13.052;2023-05-16T02:40:30;14.00;99.90
23207;DHT22;11773;52.570;13.052;2023-05-16T02:42:59;14.10;99.90
23207;DHT22;11773;52.570;13.052;2023-05-16T02:45:29;14.10;99.90
23207;DHT22;11773;52.570;13.052;2023-05-16T02:47:59;13.90;99.90
23207;DHT22;11773;52.570;13.052;2023-05-16T02:50:28;13.80;99.90
23207;DHT22;11773;52.570;13.052;2023-05-16T02:52:58;14.00;99.90
23207;DHT22;11773;52.570;13.052;2023-05-16T02:55:29;14.10;99.90
23207;DHT22;11773;52.570;13.052;2023-05-16T02:57:58;14.20;99.90
23207;DHT22;11773;52.570;13.052;2023-05-16T03:00:28;14.20;99.90
23207;DHT22;11773;52.570;13.052;2023-05-16T03:02:58;14.10;99.90
23207;DHT22;11773;52.570;13.052;2023-05-16T03:05:27;14.20;99.90
23207;DHT22;11773;52.570;13.052;2023-05-16T03:07:58;14.20;99.90
23207;DHT22;11773;52.570;13.052;2023-05-16T03:10:28;14.10;99.90
23207;DHT22;11773;52.570;13.052;2023-05-16T03:12:57;14.00;99.90
23207;DHT22;11773;52.570;13.052;2023-05-16T03:15:27;13.90;99.90
23207;DHT22;11773;52.570;13.052;2023-05-16T03:17:57;14.00;99.90
23207;DHT22;11773;52.570;13.052;2023-05-16T03:20:27;14.10;99.90
23207;DHT22;11773;52.570;13.052;2023-05-16T03:22:56;14.00;99.90
23207;DHT22;11773;52.570;13.052;2023-05-16T03:25:26;14.20;99.90
23207;DHT22;11773;52.570;13.052;2023-05-16T03:27:55;14.10;99.90
23207;DHT22;11773;52.570;13.052;2023-05-16T03:30:25;14.00;99.90
23207;DHT22;11773;52.570;13.052;2023-05-16T03:32:55;14.00;99.90
23207;DHT22;11773;52.570;13.052;2023-05-16T03:35:25;14.00;99.90
23207;DHT22;11773;52.570;13.052;2023-05-16T03:37:55;14.10;99.90
23207;DHT22;11773;52.570;13.052;2023-05-16T03:40:25;14.20;99.90
23207;DHT22;11773;52.570;13.052;2023-05-16T03:42:55;14.10;99.90
23207;DHT22;11773;52.570;13.052;2023-05-16T03:45:24;13.80;99.90
23207;DHT22;11773;52.570;13.052;2023-05-16T03:47:54;13.80;99.90
23207;DHT22;11773;52.570;13.052;2023-05-16T03:50:24;13.60;99.90
23207;DHT22;11773;52.570;13.052;2023-05-16T03:52:54;13.70;99.90
23207;DHT22;11773;52.570;13.052;2023-05-16T03:55:23;13.70;99.90
23207;DHT22;11773;52.570;13.052;2023-05-16T03:57:53;13.80;99.90
23207;DHT22;11773;52.570;13.052;2023-05-16T04:00:23;14.00;99.90
23207;DHT22;11773;52.570;13.052;2023-05-16T04:02:53;13.70;99.90
23207;DHT22;11773;52.570;13.052;2023-05-16T04:05:23;13.50;99.90
23207;DHT22;11773;52.570;13.052;2023-05-16T04:07:53;13.70;99.90
23207;DHT22;11773;52.570;13.052;2023-05-16T04:10:22;13.90;99.90
23207;DHT22;11773;52.570;13.052;2023-05-16T04:12:52;13.80;99.90
23207;DHT22;11773;52.570;13.052;2023-05-16T04:15:22;13.90;99.90
23207;DHT22;11773;52.570;13.052;2023-05-16T04:17:51;13.80;99.90
23207;DHT22;11773;52.570;13.052;2023-05-16T04:20:21;13.60;99.90
23207;DHT22;11773;52.570;13.052;2023-05-16T04:22:50;13.40;99.90
23207;DHT22;11773;52.570;13.052;2023-05-16T04:25:20;13.60;99.90
23207;DHT22;11773;52.570;13.052;2023-05-16T04:27:49;13.20;99.90
23207;DHT22;11773;52.570;13.052;2023-05-16T04:30:20;13.50;99.90
23207;DHT22;11773;52.570;13.052;2023-05-16T04:32:49;13.70;99.90
23207;DHT22;11773;52.570;13.052;2023-05-16T04:35:19;13.40;99.90
23207;DHT22;11773;52.570;13.052;2023-05-16T04:37:49;13.50;99.90
23207;DHT22;11773;52.570;13.052;2023-05-16T04:40:18;13.60;99.90
23207;DHT22;11773;52.570;13.052;2023-05-16T04:42:48;13.60;99.90
23207;DHT22;11773;52.570;13.052;2023-05-16T04:45:17;13.50;99.90
23207;DHT22;11773;52.570;13.052;2023-05-16T04:47:47;13.30;99.90
23207;DHT22;11773;52.570;13.052;2023-05-16T04:50:18;13.60;99.90
23207;DHT22;11773;52.570;13.052;2023-05-16T04:52:47;13.40;99.90
23207;DHT22;11773;52.570;13.052;2023-05-16T04:55:17;13.50;99.90
23207;DHT22;11773;52.570;13.052;2023-05-16T04:57:46;13.40;99.90
23207;DHT22;11773;52.570;13.052;2023-05-16T05:00:16;13.40;99.90
23207;DHT22;11773;52.570;13.052;2023-05-16T05:02:46;13.50;99.90
23207;DHT22;11773;52.570;13.052;2023-05-16T05:05:15;13.60;99.90
23207;DHT22;11773;52.570;13.052;2023-05-16T05:07:45;13.50;99.90
23207;DHT22;11773;52.570;13.052;2023-05-16T05:10:15;13.40;99.90
23207;DHT22;11773;52.570;13.052;2023-05-16T05:12:44;13.40;99.90
23207;DHT22;11773;52.570;13.052;2023-05-16T05:15:14;13.40;99.90
23207;DHT22;11773;52.570;13.052;2023-05-16T05:17:43;13.40;99.90
23207;DHT22;11773;52.570;13.052;2023-05-16T05:20:13;13.50;99.90
23207;DHT22;11773;52.570;13.052;2023-05-16T05:22:43;13.50;99.90
23207;DHT22;11773;52.570;13.052;2023-05-16T05:25:14;13.60;99.90
23207;DHT22;11773;52.570;13.052;2023-05-16T05:27:43;13.70;99.90
23207;DHT22;11773;52.570;13.052;2023-05-16T05:30:13;13.70;99.90
23207;DHT22;11773;52.570;13.052;2023-05-16T05:32:43;13.60;99.90
23207;DHT22;11773;52.570;13.052;2023-05-16T05:35:13;13.70;99.90
23207;DHT22;11773;52.570;13.052;2023-05-16T05:37:42;13.80;99.90
23207;DHT22;11773;52.570;13.052;2023-05-16T05:40:12;13.80;99.90
23207;DHT22;11773;52.570;13.052;2023-05-16T05:42:42;13.80;99.90
23207;DHT22;11773;52.570;13.052;2023-05-16T05:45:14;14.00;99.90
23207;DHT22;11773;52.570;13.052;2023-05-16T05:47:44;14.20;99.90
23207;DHT22;11773;52.570;13.052;2023-05-16T05:50:14;14.00;99.90
23207;DHT22;11773;52.570;13.052;2023-05-16T05:52:43;13.90;99.90
23207;DHT22;11773;52.570;13.052;2023-05-16T05:55:13;13.70;99.90
23207;DHT22;11773;52.570;13.052;2023-05-16T05:57:42;14.00;99.90
23207;DHT22;11773;52.570;13.052;2023-05-16T06:00:12;14.00;99.90
23207;DHT22;11773;52.570;13.052;2023-05-16T06:02:42;13.70;99.90
23207;DHT22;11773;52.570;13.052;2023-05-16T06:05:12;13.80;99.90
23207;DHT22;11773;52.570;13.052;2023-05-16T06:07:41;13.80;99.90
23207;DHT22;11773;52.570;13.052;2023-05-16T06:10:11;13.80;99.90
23207;DHT22;11773;52.570;13.052;2023-05-16T06:12:41;13.80;99.90
23207;DHT22;11773;52.570;13.052;2023-05-16T06:15:10;13.70;99.90
23207;DHT22;11773;52.570;13.052;2023-05-16T06:17:40;13.80;99.90
23207;DHT22;11773;52.570;13.052;2023-05-16T06:20:10;14.00;99.90
23207;DHT22;11773;52.570;13.052;2023-05-16T06:22:39;13.90;99.90
23207;DHT22;11773;52.570;13.052;2023-05-16T06:25:09;13.90;99.90
23207;DHT22;11773;52.570;13.052;2023-05-16T06:27:39;14.00;99.90
23207;DHT22;11773;52.570;13.052;2023-05-16T06:30:08;13.90;99.90
23207;DHT22;11773;52.570;13.052;2023-05-16T06:32:38;14.00;99.90
23207;DHT22;11773;52.570;13.052;2023-05-16T06:35:08;13.80;99.90
23207;DHT22;11773;52.570;13.052;2023-05-16T06:37:37;13.70;99.90
23207;DHT22;11773;52.570;13.052;2023-05-16T06:40:09;13.80;99.90
23207;DHT22;11773;52.570;13.052;2023-05-16T06:42:39;13.70;99.90
23207;DHT22;11773;52.570;13.052;2023-05-16T06:45:09;13.80;99.90
23207;DHT22;11773;52.570;13.052;2023-05-16T06:47:39;13.60;99.90
23207;DHT22;11773;52.570;13.052;2023-05-16T06:50:08;13.70;99.90
23207;DHT22;11773;52.570;13.052;2023-05-16T06:52:38;13.70;99.90
23207;DHT22;11773;52.570;13.052;2023-05-16T06:55:09;13.80;99.90
23207;DHT22;11773;52.570;13.052;2023-05-16T06:57:39;13.90;99.90
23207;DHT22;11773;52.570;13.052;2023-05-16T07:00:09;13.90;99.90
23207;DHT22;11773;52.570;13.052;2023-05-16T07:02:39;14.10;99.90
23207;DHT22;11773;52.570;13.052;2023-05-16T07:05:09;14.00;99.90
23207;DHT22;11773;52.570;13.052;2023-05-16T07:07:38;13.90;99.90
23207;DHT22;11773;52.570;13.052;2023-05-16T07:10:08;14.10;99.90
23207;DHT22;11773;52.570;13.052;2023-05-16T07:12:40;14.30;99.90
23207;DHT22;11773;52.570;13.052;2023-05-16T07:15:10;14.20;99.90
23207;DHT22;11773;52.570;13.052;2023-05-16T07:17:40;14.30;99.90
23207;DHT22;11773;52.570;13.052;2023-05-16T07:20:09;14.40;99.90
23207;DHT22;11773;52.570;13.052;2023-05-16T07:22:41;14.40;99.90
23207;DHT22;11773;52.570;13.052;2023-05-16T07:25:10;14.10;99.90
23207;DHT22;11773;52.570;13.052;2023-05-16T07:27:41;14.40;99.90
23207;DHT22;11773;52.570;13.052;2023-05-16T07:30:12;13.90;99.90
23207;DHT22;11773;52.570;13.052;2023-05-16T07:32:43;14.20;99.90
23207;DHT22;11773;52.570;13.052;2023-05-16T07:35:13;14.40;99.90
23207;DHT22;11773;52.570;13.052;2023-05-16T07:37:42;14.30;99.90
23207;DHT22;11773;52.570;13.052;2023-05-16T07:40:12;14.30;99.90
23207;DHT22;11773;52.570;13.052;2023-05-16T07:42:44;14.40;99.90
23207;DHT22;11773;52.570;13.052;2023-05-16T07:45:13;14.50;99.90
23207;DHT22;11773;52.570;13.052;2023-05-16T07:47:43;14.40;99.90
23207;DHT22;11773;52.570;13.052;2023-05-16T07:50:13;14.40;99.90
23207;DHT22;11773;52.570;13.052;2023-05-16T07:52:43;14.50;99.90
23207;DHT22;11773;52.570;13.052;2023-05-16T07:55:13;14.70;99.90
23207;DHT22;11773;52.570;13.052;2023-05-16T07:57:43;14.70;99.90
23207;DHT22;11773;52.570;13.052;2023-05-16T08:00:13;14.50;99.90
23207;DHT22;11773;52.570;13.052;2023-05-16T08:02:44;14.50;99.90
23207;DHT22;11773;52.570;13.052;2023-05-16T08:05:13;14.70;99.90
23207;DHT22;11773;52.570;13.052;2023-05-16T08:07:43;14.60;99.90
23207;DHT22;11773;52.570;13.052;2023-05-16T08:10:12;14.30;99.90
23207;DHT22;11773;52.570;13.052;2023-05-16T08:12:42;14.40;99.90
23207;DHT22;11773;52.570;13.052;2023-05-16T08:15:12;14.60;99.90
23207;DHT22;11773;52.570;13.052;2023-05-16T08:17:42;14.50;99.90
23207;DHT22;11773;52.570;13.052;2023-05-16T08:20:12;14.50;99.90
23207;DHT22;11773;52.570;13.052;2023-05-16T08:22:41;14.70;99.90
23207;DHT22;11773;52.570;13.052;2023-05-16T08:25:11;14.50;99.90
23207;DHT22;11773;52.570;13.052;2023-05-16T08:27:41;14.30;99.90
23207;DHT22;11773;52.570;13.052;2023-05-16T08:30:12;14.50;99.90
23207;DHT22;11773;52.570;13.052;2023-05-16T08:32:41;14.40;99.90
23207;DHT22;11773;52.570;13.052;2023-05-16T08:35:11;14.50;99.90
23207;DHT22;11773;52.570;13.052;2023-05-16T08:37:41;14.60;99.90
23207;DHT22;11773;52.570;13.052;2023-05-16T08:40:11;14.70;99.90
23207;DHT22;11773;52.570;13.052;2023-05-16T08:42:42;14.90;99.90
23207;DHT22;11773;52.570;13.052;2023-05-16T08:45:12;14.90;99.90
23207;DHT22;11773;52.570;13.052;2023-05-16T08:47:41;14.90;99.90
23207;DHT22;11773;52.570;13.052;2023-05-16T08:50:13;14.40;99.90
23207;DHT22;11773;52.570;13.052;2023-05-16T08:52:44;14.30;99.90
23207;DHT22;11773;52.570;13.052;2023-05-16T08:55:19;14.30;99.90
23207;DHT22;11773;52.570;13.052;2023-05-16T08:57:49;14.30;99.90
23207;DHT22;11773;52.570;13.052;2023-05-16T09:00:20;14.50;99.90
23207;DHT22;11773;52.570;13.052;2023-05-16T09:02:50;14.40;99.90
23207;DHT22;11773;52.570;13.052;2023-05-16T09:05:21;14.60;99.90
23207;DHT22;11773;52.570;13.052;2023-05-16T09:07:51;14.80;99.90
23207;DHT22;11773;52.570;13.052;2023-05-16T09:10:21;14.60;99.90
23207;DHT22;11773;52.570;13.052;2023-05-16T09:12:50;14.80;99.90
23207;DHT22;11773;52.570;13.052;2023-05-16T09:15:20;14.90;99.90
23207;DHT22;11773;52.570;13.052;2023-05-16T09:17:50;14.70;99.90
23207;DHT22;11773;52.570;13.052;2023-05-16T09:20:20;15.00;99.90
23207;DHT22;11773;52.570;13.052;2023-05-16T09:22:51;14.90;99.90
23207;DHT22;11773;52.570;13.052;2023-05-16T09:25:30;14.90;99.90
23207;DHT22;11773;52.570;13.052;2023-05-16T09:27:59;14.90;99.90
23207;DHT22;11773;52.570;13.052;2023-05-16T09:30:32;14.80;99.90
23207;DHT22;11773;52.570;13.052;2023-05-16T09:33:02;14.80;99.90
23207;DHT22;11773;52.570;13.052;2023-05-16T09:35:34;15.00;99.90
23207;DHT22;11773;52.570;13.052;2023-05-16T09:38:12;14.50;99.90
23207;DHT22;11773;52.570;13.052;2023-05-16T09:40:44;14.50;99.90
23207;DHT22;11773;52.570;13.052;2023-05-16T09:43:15;14.70;99.90
23207;DHT22;11773;52.570;13.052;2023-05-16T09:45:46;14.70;99.90
23207;DHT22;11773;52.570;13.052;2023-05-16T09:48:17;14.60;99.90
23207;DHT22;11773;52.570;13.052;2023-05-16T09:50:51;14.60;99.90
23207;DHT22;11773;52.570;13.052;2023-05-16T09:53:26;14.90;99.90
23207;DHT22;11773;52.570;13.052;2023-05-16T09:56:00;15.20;99.90
23207;DHT22;11773;52.570;13.052;2023-05-16T09:58:39;15.20;99.90
23207;DHT22;11773;52.570;13.052;2023-05-16T10:01:12;15.50;99.90
23207;DHT22;11773;52.570;13.052;2023-05-16T10:03:43;15.60;99.90
23207;DHT22;11773;52.570;13.052;2023-05-16T10:06:13;15.50;99.90
23207;DHT22;11773;52.570;13.052;2023-05-16T10:08:43;15.20;99.90
23207;DHT22;11773;52.570;13.052;2023-05-16T10:11:15;14.90;99.90
23207;DHT22;11773;52.570;13.052;2023-05-16T10:13:46;14.60;99.90
23207;DHT22;11773;52.570;13.052;2023-05-16T10:16:18;14.90;99.90
23207;DHT22;11773;52.570;13.052;2023-05-16T10:18:51;15.00;99.90
23207;DHT22;11773;52.570;13.052;2023-05-16T10:21:22;15.10;99.90
23207;DHT22;11773;52.570;13.052;2023-05-16T10:23:58;15.30;99.90
23207;DHT22;11773;52.570;13.052;2023-05-16T10:26:32;15.30;99.90
23207;DHT22;11773;52.570;13.052;2023-05-16T10:29:02;15.50;99.90
23207;DHT22;11773;52.570;13.052;2023-05-16T10:31:32;15.50;99.90
23207;DHT22;11773;52.570;13.052;2023-05-16T10:34:03;15.60;99.90
23207;DHT22;11773;52.570;13.052;2023-05-16T10:36:33;15.70;99.90
23207;DHT22;11773;52.570;13.052;2023-05-16T10:39:04;15.60;99.90
23207;DHT22;11773;52.570;13.052;2023-05-16T10:41:34;15.60;99.90
23207;DHT22;11773;52.570;13.052;2023-05-16T10:44:08;15.70;99.90
23207;DHT22;11773;52.570;13.052;2023-05-16T10:46:43;15.90;99.90
23207;DHT22;11773;52.570;13.052;2023-05-16T10:49:24;15.50;99.90
23207;DHT22;11773;52.570;13.052;2023-05-16T10:52:09;15.70;99.90
23207;DHT22;11773;52.570;13.052;2023-05-16T10:54:42;15.70;99.90
23207;DHT22;11773;52.570;13.052;2023-05-16T10:57:18;15.60;99.90
23207;DHT22;11773;52.570;13.052;2023-05-16T10:59:51;15.50;99.90
23207;DHT22;11773;52.570;13.052;2023-05-16T11:02:30;15.40;99.90
23207;DHT22;11773;52.570;13.052;2023-05-16T11:05:02;15.60;99.90
23207;DHT22;11773;52.570;13.052;2023-05-16T11:07:34;16.00;99.90
23207;DHT22;11773;52.570;13.052;2023-05-16T11:10:09;16.10;99.90
23207;DHT22;11773;52.570;13.052;2023-05-16T11:12:50;16.10;99.90
23207;DHT22;11773;52.570;13.052;2023-05-16T11:15:24;15.80;99.90
23207;DHT22;11773;52.570;13.052;2023-05-16T11:18:05;16.40;99.90
23207;DHT22;11773;52.570;13.052;2023-05-16T11:20:37;16.60;99.90
23207;DHT22;11773;52.570;13.052;2023-05-16T11:23:18;16.70;99.90
23207;DHT22;11773;52.570;13.052;2023-05-16T11:25:52;16.70;99.90
23207;DHT22;11773;52.570;13.052;2023-05-16T11:28:24;16.90;99.90
23207;DHT22;11773;52.570;13.052;2023-05-16T11:30:57;17.10;99.90
23207;DHT22;11773;52.570;13.052;2023-05-16T11:33:30;17.00;99.90
23207;DHT22;11773;52.570;13.052;2023-05-16T11:36:05;16.90;99.90
23207;DHT22;11773;52.570;13.052;2023-05-16T11:38:38;17.00;99.90
23207;DHT22;11773;52.570;13.052;2023-05-16T11:41:09;17.10;99.90
23207;DHT22;11773;52.570;13.052;2023-05-16T11:43:42;17.30;99.90
23207;DHT22;11773;52.570;13.052;2023-05-16T11:46:14;17.30;99.90
23207;DHT22;11773;52.570;13.052;2023-05-16T11:48:44;17.40;99.90
23207;DHT22;11773;52.570;13.052;2023-05-16T11:51:18;17.20;99.90
23207;DHT22;11773;52.570;13.052;2023-05-16T11:53:48;16.80;99.90
23207;DHT22;11773;52.570;13.052;2023-05-16T11:56:20;17.20;99.90
23207;DHT22;11773;52.570;13.052;2023-05-16T11:58:50;16.70;99.90
23207;DHT22;11773;52.570;13.052;2023-05-16T12:01:19;17.10;99.90
23207;DHT22;11773;52.570;13.052;2023-05-16T12:03:56;17.20;99.90
23207;DHT22;11773;52.570;13.052;2023-05-16T12:06:26;17.30;99.90
23207;DHT22;11773;52.570;13.052;2023-05-16T12:08:57;17.60;99.90
23207;DHT22;11773;52.570;13.052;2023-05-16T12:11:29;17.90;99.90
23207;DHT22;11773;52.570;13.052;2023-05-16T12:13:59;17.80;99.90
23207;DHT22;11773;52.570;13.052;2023-05-16T12:16:29;18.10;99.90
23207;DHT22;11773;52.570;13.052;2023-05-16T12:19:00;18.10;99.90
23207;DHT22;11773;52.570;13.052;2023-05-16T12:21:31;18.30;99.90
23207;DHT22;11773;52.570;13.052;2023-05-16T12:24:01;18.50;99.90
23207;DHT22;11773;52.570;13.052;2023-05-16T12:26:31;18.30;99.90
23207;DHT22;11773;52.570;13.052;2023-05-16T12:29:02;18.40;99.90
23207;DHT22;11773;52.570;13.052;2023-05-16T12:31:37;18.40;99.90
23207;DHT22;11773;52.570;13.052;2023-05-16T12:34:20;18.20;99.90
23207;DHT22;11773;52.570;13.052;2023-05-16T12:36:52;18.30;99.90
23207;DHT22;11773;52.570;13.052;2023-05-16T12:39:21;18.30;99.90
23207;DHT22;11773;52.570;13.052;2023-05-16T12:41:51;17.50;99.90
23207;DHT22;11773;52.570;13.052;2023-05-16T12:44:21;17.60;99.90
23207;DHT22;11773;52.570;13.052;2023-05-16T12:46:51;17.90;99.90
23207;DHT22;11773;52.570;13.052;2023-05-16T12:49:22;18.10;99.90
23207;DHT22;11773;52.570;13.052;2023-05-16T12:51:54;18.30;99.90
23207;DHT22;11773;52.570;13.052;2023-05-16T12:54:25;18.20;99.90
23207;DHT22;11773;52.570;13.052;2023-05-16T12:56:55;18.20;99.90
23207;DHT22;11773;52.570;13.052;2023-05-16T12:59:25;18.20;99.90
23207;DHT22;11773;52.570;13.052;2023-05-16T13:01:55;18.30;99.90
23207;DHT22;11773;52.570;13.052;2023-05-16T13:04:25;18.30;99.90
23207;DHT22;11773;52.570;13.052;2023-05-16T13:06:55;18.50;99.90
23207;DHT22;11773;52.570;13.052;2023-05-16T13:09:26;18.20;99.90
23207;DHT22;11773;52.570;13.052;2023-05-16T13:11:58;18.40;99.90
23207;DHT22;11773;52.570;13.052;2023-05-16T13:14:27;18.70;99.90
23207;DHT22;11773;52.570;13.052;2023-05-16T13:16:57;18.80;99.90
23207;DHT22;11773;52.570;13.052;2023-05-16T13:19:27;19.00;99.90
23207;DHT22;11773;52.570;13.052;2023-05-16T13:21:58;18.70;99.90
23207;DHT22;11773;52.570;13.052;2023-05-16T13:24:27;18.60;99.90
23207;DHT22;11773;52.570;13.052;2023-05-16T13:26:57;18.40;99.90
23207;DHT22;11773;52.570;13.052;2023-05-16T13:29:27;18.50;99.90
23207;DHT22;11773;52.570;13.052;2023-05-16T13:31:57;18.40;99.90
23207;DHT22;11773;52.570;13.052;2023-05-16T13:34:27;18.70;99.90
23207;DHT22;11773;52.570;13.052;2023-05-16T13:36:56;19.00;99.90
23207;DHT22;11773;52.570;13.052;2023-05-16T13:39:26;19.20;99.90
23207;DHT22;11773;52.570;13.052;2023-05-16T13:41:56;19.00;99.90
23207;DHT22;11773;52.570;13.052;2023-05-16T13:44:26;18.70;99.90
23207;DHT22;11773;52.570;13.052;2023-05-16T13:46:56;18.50;99.90
23207;DHT22;11773;52.570;13.052;2023-05-16T13:49:25;18.80;99.90
23207;DHT22;11773;52.570;13.052;2023-05-16T13:51:55;18.80;99.90
23207;DHT22;11773;52.570;13.052;2023-05-16T13:54:25;18.50;99.90
23207;DHT22;11773;52.570;13.052;2023-05-16T13:56:55;18.50;99.90
23207;DHT22;11773;52.570;13.052;2023-05-16T13:59:25;18.70;99.90
23207;DHT22;11773;52.570;13.052;2023-05-16T14:01:56;19.00;99.90
23207;DHT22;11773;52.570;13.052;2023-05-16T14:04:26;19.00;99.90
23207;DHT22;11773;52.570;13.052;2023-05-16T14:06:55;19.00;99.90
23207;DHT22;11773;52.570;13.052;2023-05-16T14:09:25;19.00;99.60
23207;DHT22;11773;52.570;13.052;2023-05-16T14:11:54;19.20;99.90
23207;DHT22;11773;52.570;13.052;2023-05-16T14:14:24;18.90;99.90
23207;DHT22;11773;52.570;13.052;2023-05-16T14:16:54;19.00;99.80
23207;DHT22;11773;52.570;13.052;2023-05-16T14:19:23;19.20;99.90
23207;DHT22;11773;52.570;13.052;2023-05-16T14:21:53;19.10;99.90
23207;DHT22;11773;52.570;13.052;2023-05-16T14:24:23;19.10;99.90
23207;DHT22;11773;52.570;13.052;2023-05-16T14:26:53;19.10;98.50
23207;DHT22;11773;52.570;13.052;2023-05-16T14:29:22;18.80;99.10
23207;DHT22;11773;52.570;13.052;2023-05-16T14:31:52;18.90;99.70
23207;DHT22;11773;52.570;13.052;2023-05-16T14:34:23;19.10;98.90
23207;DHT22;11773;52.570;13.052;2023-05-16T14:36:52;19.10;99.60
23207;DHT22;11773;52.570;13.052;2023-05-16T14:39:22;19.00;98.90
23207;DHT22;11773;52.570;13.052;2023-05-16T14:41:52;19.00;98.60
23207;DHT22;11773;52.570;13.052;2023-05-16T14:44:22;19.20;98.40
23207;DHT22;11773;52.570;13.052;2023-05-16T14:46:51;19.00;98.30
23207;DHT22;11773;52.570;13.052;2023-05-16T14:49:21;18.90;97.90
23207;DHT22;11773;52.570;13.052;2023-05-16T14:51:51;19.00;97.50
23207;DHT22;11773;52.570;13.052;2023-05-16T14:54:21;19.00;99.00
23207;DHT22;11773;52.570;13.052;2023-05-16T14:56:50;19.00;97.60
23207;DHT22;11773;52.570;13.052;2023-05-16T14:59:20;19.00;97.40
23207;DHT22;11773;52.570;13.052;2023-05-16T15:01:49;18.90;99.20
23207;DHT22;11773;52.570;13.052;2023-05-16T15:04:19;19.20;98.30
23207;DHT22;11773;52.570;13.052;2023-05-16T15:06:49;19.10;97.20
23207;DHT22;11773;52.570;13.052;2023-05-16T15:09:18;19.20;96.00
23207;DHT22;11773;52.570;13.052;2023-05-16T15:11:48;19.10;96.60
23207;DHT22;11773;52.570;13.052;2023-05-16T15:14:18;19.00;99.00
23207;DHT22;11773;52.570;13.052;2023-05-16T15:16:48;19.00;98.80
23207;DHT22;11773;52.570;13.052;2023-05-16T15:19:18;19.00;98.70
23207;DHT22;11773;52.570;13.052;2023-05-16T15:21:48;19.10;96.70
23207;DHT22;11773;52.570;13.052;2023-05-16T15:24:18;19.10;96.90
23207;DHT22;11773;52.570;13.052;2023-05-16T15:26:47;18.90;97.70
23207;DHT22;11773;52.570;13.052;2023-05-16T15:29:17;18.80;96.60
23207;DHT22;11773;52.570;13.052;2023-05-16T15:31:47;18.60;95.50
23207;DHT22;11773;52.570;13.052;2023-05-16T15:34:17;18.70;99.60
23207;DHT22;11773;52.570;13.052;2023-05-16T15:36:47;18.50;96.40
23207;DHT22;11773;52.570;13.052;2023-05-16T15:39:17;18.60;99.90
23207;DHT22;11773;52.570;13.052;2023-05-16T15:41:46;18.60;98.90
23207;DHT22;11773;52.570;13.052;2023-05-16T15:44:18;18.60;97.10
23207;DHT22;11773;52.570;13.052;2023-05-16T15:46:47;18.40;97.60
23207;DHT22;11773;52.570;13.052;2023-05-16T15:49:17;18.50;99.30